sensor_id;sensor_type;location;lat;lon;timestamp;noise_LAeq;noise_LA_min;noise_LA_max;noise_LA01;noise_LA95
66449;Laerm;56828;52.294;4.666;2023-04-25T00:00:02;32.12;29.67;33.64;;
66449;Laerm;56828;52.294;4.666;2023-04-25T00:00:13;33.15;31.14;34.75;;
66449;Laerm;56828;52.294;4.666;2023-04-25T00:00:24;35.43;30.93;39.86;;
66449;Laerm;56828;52.294;4.666;2023-04-25T00:00:35;40.73;37.67;45.19;;
66449;Laerm;56828;52.294;4.666;2023-04-25T00:00:45;37.87;34.90;41.19;;
66449;Laerm;56828;52.294;4.666;2023-04-25T00:00:55;38.23;32.53;41.61;;
66449;Laerm;56828;52.294;4.666;2023-04-25T00:01:06;32.20;29.72;33.91;;
66449;Laerm;56828;52.294;4.666;2023-04-25T00:01:16;29.88;28.73;31.63;;
66449;Laerm;56828;52.294;4.666;2023-04-25T00:01:27;29.26;28.02;30.26;;
66449;Laerm;56828;52.294;4.666;2023-04-25T00:01:37;29.35;28.41;30.98;;
66449;Laerm;56828;52.294;4.666;2023-04-25T00:01:48;29.63;28.36;30.87;;
66449;Laerm;56828;52.294;4.666;2023-04-25T00:01:58;29.48;28.31;31.06;;
66449;Laerm;56828;52.294;4.666;2023-04-25T00:02:09;29.42;28.08;30.54;;
66449;Laerm;56828;52.294;4.666;2023-04-25T00:02:20;29.30;28.30;30.52;;
66449;Laerm;56828;52.294;4.666;2023-04-25T00:02:30;29.33;28.14;30.57;;
66449;Laerm;56828;52.294;4.666;2023-04-25T00:02:41;29.45;28.27;30.75;;
66449;Laerm;56828;52.294;4.666;2023-04-25T00:02:52;29.55;28.46;30.81;;
66449;Laerm;56828;52.294;4.666;2023-04-25T00:03:02;29.60;28.41;30.77;;
66449;Laerm;56828;52.294;4.666;2023-04-25T00:03:13;29.62;28.40;30.76;;
66449;Laerm;56828;52.294;4.666;2023-04-25T00:03:23;30.01;28.23;37.52;;
66449;Laerm;56828;52.294;4.666;2023-04-25T00:03:35;29.82;28.38;31.92;;
66449;Laerm;56828;52.294;4.666;2023-04-25T00:03:45;30.01;28.76;31.70;;
66449;Laerm;56828;52.294;4.666;2023-04-25T00:03:56;30.85;28.83;35.15;;
66449;Laerm;56828;52.294;4.666;2023-04-25T00:04:07;33.11;29.71;39.16;;
66449;Laerm;56828;52.294;4.666;2023-04-25T00:04:17;33.85;30.31;39.36;;
66449;Laerm;56828;52.294;4.666;2023-04-25T00:04:27;34.27;30.22;39.36;;
66449;Laerm;56828;52.294;4.666;2023-04-25T00:04:39;33.45;30.28;42.48;;
66449;Laerm;56828;52.294;4.666;2023-04-25T00:04:50;37.81;30.06;48.07;;
66449;Laerm;56828;52.294;4.666;2023-04-25T00:05:01;34.66;29.47;42.91;;
66449;Laerm;56828;52.294;4.666;2023-04-25T00:05:11;32.11;28.91;42.64;;
66449;Laerm;56828;52.294;4.666;2023-04-25T00:05:22;30.02;28.71;32.03;;
66449;Laerm;56828;52.294;4.666;2023-04-25T00:05:33;29.91;28.73;31.13;;
66449;Laerm;56828;52.294;4.666;2023-04-25T00:05:44;29.60;28.27;30.67;;
66449;Laerm;56828;52.294;4.666;2023-04-25T00:05:55;29.44;28.08;30.73;;
66449;Laerm;56828;52.294;4.666;2023-04-25T00:06:06;29.33;28.02;30.60;;
66449;Laerm;56828;52.294;4.666;2023-04-25T00:06:17;29.40;28.29;30.58;;
66449;Laerm;56828;52.294;4.666;2023-04-25T00:06:28;29.41;28.10;30.43;;
66449;Laerm;56828;52.294;4.666;2023-04-25T00:06:39;30.53;28.38;33.58;;
66449;Laerm;56828;52.294;4.666;2023-04-25T00:06:50;29.55;28.51;30.82;;
66449;Laerm;56828;52.294;4.666;2023-04-25T00:07:00;29.77;28.47;32.41;;
66449;Laerm;56828;52.294;4.666;2023-04-25T00:07:13;30.19;28.32;33.76;;
66449;Laerm;56828;52.294;4.666;2023-04-25T00:07:24;30.00;28.54;33.19;;
66449;Laerm;56828;52.294;4.666;2023-04-25T00:07:35;29.38;28.38;32.06;;
66449;Laerm;56828;52.294;4.666;2023-04-25T00:07:45;29.45;28.07;31.51;;
66449;Laerm;56828;52.294;4.666;2023-04-25T00:07:56;30.10;28.71;32.37;;
66449;Laerm;56828;52.294;4.666;2023-04-25T00:08:07;30.24;28.90;31.94;;
66449;Laerm;56828;52.294;4.666;2023-04-25T00:08:17;29.93;28.65;31.86;;
66449;Laerm;56828;52.294;4.666;2023-04-25T00:08:28;29.87;28.65;31.80;;
66449;Laerm;56828;52.294;4.666;2023-04-25T00:08:39;30.32;28.79;32.36;;
66449;Laerm;56828;52.294;4.666;2023-04-25T00:08:49;30.45;28.70;31.80;;
66449;Laerm;56828;52.294;4.666;2023-04-25T00:08:59;30.33;28.47;32.56;;
66449;Laerm;56828;52.294;4.666;2023-04-25T00:09:10;29.70;28.37;31.32;;
66449;Laerm;56828;52.294;4.666;2023-04-25T00:09:21;29.80;28.26;42.19;;
66449;Laerm;56828;52.294;4.666;2023-04-25T00:09:32;29.38;28.37;30.26;;
66449;Laerm;56828;52.294;4.666;2023-04-25T00:09:42;29.32;28.11;30.53;;
66449;Laerm;56828;52.294;4.666;2023-04-25T00:09:52;29.72;28.34;35.18;;
66449;Laerm;56828;52.294;4.666;2023-04-25T00:10:03;29.66;28.39;31.17;;
66449;Laerm;56828;52.294;4.666;2023-04-25T00:10:13;30.01;28.29;33.21;;
66449;Laerm;56828;52.294;4.666;2023-04-25T00:10:23;32.38;28.71;38.42;;
66449;Laerm;56828;52.294;4.666;2023-04-25T00:10:34;29.66;28.50;30.85;;
66449;Laerm;56828;52.294;4.666;2023-04-25T00:10:44;29.66;28.51;30.94;;
66449;Laerm;56828;52.294;4.666;2023-04-25T00:10:55;29.41;28.26;30.45;;
66449;Laerm;56828;52.294;4.666;2023-04-25T00:11:05;29.21;28.10;30.28;;
66449;Laerm;56828;52.294;4.666;2023-04-25T00:11:15;29.33;28.26;30.71;;
66449;Laerm;56828;52.294;4.666;2023-04-25T00:11:26;29.31;27.97;30.54;;
66449;Laerm;56828;52.294;4.666;2023-04-25T00:11:36;29.16;28.13;30.33;;
66449;Laerm;56828;52.294;4.666;2023-04-25T00:11:47;29.36;28.15;30.33;;
66449;Laerm;56828;52.294;4.666;2023-04-25T00:11:58;29.73;27.83;31.62;;
66449;Laerm;56828;52.294;4.666;2023-04-25T00:12:08;29.81;28.29;31.19;;
66449;Laerm;56828;52.294;4.666;2023-04-25T00:12:18;30.07;28.81;31.93;;
66449;Laerm;56828;52.294;4.666;2023-04-25T00:12:29;30.26;28.93;31.88;;
66449;Laerm;56828;52.294;4.666;2023-04-25T00:12:39;30.08;28.51;31.45;;
66449;Laerm;56828;52.294;4.666;2023-04-25T00:12:50;30.16;28.42;31.53;;
66449;Laerm;56828;52.294;4.666;2023-04-25T00:13:00;29.40;28.32;31.05;;
66449;Laerm;56828;52.294;4.666;2023-04-25T00:13:13;29.44;28.26;32.25;;
66449;Laerm;56828;52.294;4.666;2023-04-25T00:13:23;29.50;28.22;31.36;;
66449;Laerm;56828;52.294;4.666;2023-04-25T00:13:35;29.55;28.11;30.94;;
66449;Laerm;56828;52.294;4.666;2023-04-25T00:13:45;29.33;28.17;30.51;;
66449;Laerm;56828;52.294;4.666;2023-04-25T00:13:56;29.38;28.09;30.87;;
66449;Laerm;56828;52.294;4.666;2023-04-25T00:14:07;29.23;28.34;30.17;;
66449;Laerm;56828;52.294;4.666;2023-04-25T00:14:17;29.18;28.10;30.15;;
66449;Laerm;56828;52.294;4.666;2023-04-25T00:14:28;29.15;28.01;30.25;;
66449;Laerm;56828;52.294;4.666;2023-04-25T00:14:39;29.12;28.10;30.09;;
66449;Laerm;56828;52.294;4.666;2023-04-25T00:14:49;29.15;27.87;32.56;;
66449;Laerm;56828;52.294;4.666;2023-04-25T00:14:59;29.47;27.96;38.82;;
66449;Laerm;56828;52.294;4.666;2023-04-25T00:15:10;29.44;27.99;36.67;;
66449;Laerm;56828;52.294;4.666;2023-04-25T00:15:21;39.77;28.19;54.76;;
66449;Laerm;56828;52.294;4.666;2023-04-25T00:15:31;38.28;28.03;58.10;;
66449;Laerm;56828;52.294;4.666;2023-04-25T00:15:41;31.71;28.00;47.93;;
66449;Laerm;56828;52.294;4.666;2023-04-25T00:15:52;29.76;28.05;30.84;;
66449;Laerm;56828;52.294;4.666;2023-04-25T00:16:06;30.21;28.63;32.24;;
66449;Laerm;56828;52.294;4.666;2023-04-25T00:16:16;33.96;29.87;38.25;;
66449;Laerm;56828;52.294;4.666;2023-04-25T00:16:27;38.71;32.64;42.47;;
66449;Laerm;56828;52.294;4.666;2023-04-25T00:16:38;38.97;30.23;48.16;;
66449;Laerm;56828;52.294;4.666;2023-04-25T00:16:51;31.23;29.28;33.47;;
66449;Laerm;56828;52.294;4.666;2023-04-25T00:17:01;31.35;28.85;32.94;;
66449;Laerm;56828;52.294;4.666;2023-04-25T00:17:12;29.79;28.61;31.03;;
66449;Laerm;56828;52.294;4.666;2023-04-25T00:17:23;29.32;28.18;30.33;;
66449;Laerm;56828;52.294;4.666;2023-04-25T00:17:34;29.33;28.00;30.52;;
66449;Laerm;56828;52.294;4.666;2023-04-25T00:17:45;29.29;28.29;30.50;;
66449;Laerm;56828;52.294;4.666;2023-04-25T00:17:56;29.31;28.31;30.71;;
66449;Laerm;56828;52.294;4.666;2023-04-25T00:18:06;29.43;28.13;30.43;;
66449;Laerm;56828;52.294;4.666;2023-04-25T00:18:17;29.27;28.18;30.72;;
66449;Laerm;56828;52.294;4.666;2023-04-25T00:18:28;29.57;28.38;31.50;;
66449;Laerm;56828;52.294;4.666;2023-04-25T00:18:43;29.80;28.38;33.47;;
66449;Laerm;56828;52.294;4.666;2023-04-25T00:18:53;29.47;28.51;31.31;;
66449;Laerm;56828;52.294;4.666;2023-04-25T00:19:03;29.36;28.02;30.38;;
66449;Laerm;56828;52.294;4.666;2023-04-25T00:19:14;30.11;28.27;43.34;;
66449;Laerm;56828;52.294;4.666;2023-04-25T00:19:24;30.38;28.78;34.08;;
66449;Laerm;56828;52.294;4.666;2023-04-25T00:19:36;29.84;28.65;31.88;;
66449;Laerm;56828;52.294;4.666;2023-04-25T00:19:47;30.46;28.49;32.88;;
66449;Laerm;56828;52.294;4.666;2023-04-25T00:19:58;30.21;28.87;31.62;;
66449;Laerm;56828;52.294;4.666;2023-04-25T00:20:08;30.15;29.07;31.74;;
66449;Laerm;56828;52.294;4.666;2023-04-25T00:20:19;29.75;28.58;30.95;;
66449;Laerm;56828;52.294;4.666;2023-04-25T00:20:29;29.44;28.13;30.59;;
66449;Laerm;56828;52.294;4.666;2023-04-25T00:20:40;29.40;28.21;31.88;;
66449;Laerm;56828;52.294;4.666;2023-04-25T00:20:50;29.26;28.26;30.45;;
66449;Laerm;56828;52.294;4.666;2023-04-25T00:21:00;29.40;28.24;30.45;;
66449;Laerm;56828;52.294;4.666;2023-04-25T00:21:11;29.60;28.26;32.52;;
66449;Laerm;56828;52.294;4.666;2023-04-25T00:21:22;29.62;28.16;33.48;;
66449;Laerm;56828;52.294;4.666;2023-04-25T00:21:34;29.33;27.89;30.57;;
66449;Laerm;56828;52.294;4.666;2023-04-25T00:21:45;29.40;28.44;30.70;;
66449;Laerm;56828;52.294;4.666;2023-04-25T00:21:56;29.34;28.24;30.84;;
66449;Laerm;56828;52.294;4.666;2023-04-25T00:22:06;29.14;28.03;30.16;;
66449;Laerm;56828;52.294;4.666;2023-04-25T00:22:17;29.15;28.10;30.14;;
66449;Laerm;56828;52.294;4.666;2023-04-25T00:22:27;29.13;28.07;30.07;;
66449;Laerm;56828;52.294;4.666;2023-04-25T00:22:37;28.99;27.93;29.96;;
66449;Laerm;56828;52.294;4.666;2023-04-25T00:22:48;29.04;28.13;30.05;;
66449;Laerm;56828;52.294;4.666;2023-04-25T00:22:58;29.03;27.87;29.88;;
66449;Laerm;56828;52.294;4.666;2023-04-25T00:23:08;28.98;27.66;30.52;;
66449;Laerm;56828;52.294;4.666;2023-04-25T00:23:18;29.02;28.05;30.12;;
66449;Laerm;56828;52.294;4.666;2023-04-25T00:23:29;29.07;28.02;30.22;;
66449;Laerm;56828;52.294;4.666;2023-04-25T00:23:39;29.22;27.95;32.08;;
66449;Laerm;56828;52.294;4.666;2023-04-25T00:23:52;29.62;28.23;32.78;;
66449;Laerm;56828;52.294;4.666;2023-04-25T00:24:02;29.58;28.35;32.89;;
66449;Laerm;56828;52.294;4.666;2023-04-25T00:24:12;29.62;28.38;30.81;;
66449;Laerm;56828;52.294;4.666;2023-04-25T00:24:23;29.60;28.46;31.27;;
66449;Laerm;56828;52.294;4.666;2023-04-25T00:24:33;29.93;28.25;37.06;;
66449;Laerm;56828;52.294;4.666;2023-04-25T00:24:43;30.06;28.34;32.14;;
66449;Laerm;56828;52.294;4.666;2023-04-25T00:24:54;29.59;28.34;30.92;;
66449;Laerm;56828;52.294;4.666;2023-04-25T00:25:07;29.55;28.24;30.74;;
66449;Laerm;56828;52.294;4.666;2023-04-25T00:25:17;29.43;28.17;30.61;;
66449;Laerm;56828;52.294;4.666;2023-04-25T00:25:27;30.02;28.24;36.73;;
66449;Laerm;56828;52.294;4.666;2023-04-25T00:25:38;29.58;28.09;31.01;;
66449;Laerm;56828;52.294;4.666;2023-04-25T00:25:49;29.65;28.36;31.13;;
66449;Laerm;56828;52.294;4.666;2023-04-25T00:25:59;29.39;28.24;30.54;;
66449;Laerm;56828;52.294;4.666;2023-04-25T00:26:10;34.63;28.93;39.52;;
66449;Laerm;56828;52.294;4.666;2023-04-25T00:26:20;38.76;32.14;44.16;;
66449;Laerm;56828;52.294;4.666;2023-04-25T00:26:31;43.83;34.17;53.52;;
66449;Laerm;56828;52.294;4.666;2023-04-25T00:26:41;44.75;36.80;51.48;;
66449;Laerm;56828;52.294;4.666;2023-04-25T00:26:51;43.68;38.19;49.55;;
66449;Laerm;56828;52.294;4.666;2023-04-25T00:27:01;39.08;33.41;43.17;;
66449;Laerm;56828;52.294;4.666;2023-04-25T00:27:12;33.14;30.74;36.03;;
66449;Laerm;56828;52.294;4.666;2023-04-25T00:27:22;30.64;28.74;33.73;;
66449;Laerm;56828;52.294;4.666;2023-04-25T00:27:33;29.41;28.06;31.01;;
66449;Laerm;56828;52.294;4.666;2023-04-25T00:27:43;29.31;28.15;30.61;;
66449;Laerm;56828;52.294;4.666;2023-04-25T00:27:53;29.69;28.09;31.60;;
66449;Laerm;56828;52.294;4.666;2023-04-25T00:28:03;29.40;28.19;30.85;;
66449;Laerm;56828;52.294;4.666;2023-04-25T00:28:14;30.13;28.22;31.24;;
66449;Laerm;56828;52.294;4.666;2023-04-25T00:28:25;29.89;28.41;32.43;;
66449;Laerm;56828;52.294;4.666;2023-04-25T00:28:35;30.37;28.75;31.99;;
66449;Laerm;56828;52.294;4.666;2023-04-25T00:28:45;29.72;28.28;31.61;;
66449;Laerm;56828;52.294;4.666;2023-04-25T00:28:56;30.49;28.50;34.54;;
66449;Laerm;56828;52.294;4.666;2023-04-25T00:29:06;30.45;28.13;33.94;;
66449;Laerm;56828;52.294;4.666;2023-04-25T00:29:16;29.50;28.42;30.81;;
66449;Laerm;56828;52.294;4.666;2023-04-25T00:29:27;29.94;28.65;31.28;;
66449;Laerm;56828;52.294;4.666;2023-04-25T00:29:37;30.00;28.55;31.11;;
66449;Laerm;56828;52.294;4.666;2023-04-25T00:29:47;29.51;28.37;30.61;;
66449;Laerm;56828;52.294;4.666;2023-04-25T00:29:58;29.58;28.45;31.14;;
66449;Laerm;56828;52.294;4.666;2023-04-25T00:30:08;29.55;28.11;31.23;;
66449;Laerm;56828;52.294;4.666;2023-04-25T00:30:19;29.37;27.81;30.56;;
66449;Laerm;56828;52.294;4.666;2023-04-25T00:30:29;29.31;28.36;30.48;;
66449;Laerm;56828;52.294;4.666;2023-04-25T00:30:40;29.56;28.20;36.45;;
66449;Laerm;56828;52.294;4.666;2023-04-25T00:30:50;29.22;27.90;30.53;;
66449;Laerm;56828;52.294;4.666;2023-04-25T00:31:01;29.13;27.39;30.16;;
66449;Laerm;56828;52.294;4.666;2023-04-25T00:31:11;29.21;28.10;30.99;;
66449;Laerm;56828;52.294;4.666;2023-04-25T00:31:21;29.65;28.41;30.85;;
66449;Laerm;56828;52.294;4.666;2023-04-25T00:31:32;29.35;27.94;31.34;;
66449;Laerm;56828;52.294;4.666;2023-04-25T00:31:42;29.10;28.07;30.22;;
66449;Laerm;56828;52.294;4.666;2023-04-25T00:31:52;29.04;27.91;30.29;;
66449;Laerm;56828;52.294;4.666;2023-04-25T00:32:02;29.04;27.86;30.45;;
66449;Laerm;56828;52.294;4.666;2023-04-25T00:32:13;29.27;27.98;30.92;;
66449;Laerm;56828;52.294;4.666;2023-04-25T00:32:23;29.13;28.09;30.48;;
66449;Laerm;56828;52.294;4.666;2023-04-25T00:32:33;29.08;27.97;30.20;;
66449;Laerm;56828;52.294;4.666;2023-04-25T00:32:44;28.96;28.05;30.05;;
66449;Laerm;56828;52.294;4.666;2023-04-25T00:32:55;29.02;28.00;30.46;;
66449;Laerm;56828;52.294;4.666;2023-04-25T00:33:06;29.24;28.16;30.21;;
66449;Laerm;56828;52.294;4.666;2023-04-25T00:33:16;29.26;28.07;30.40;;
66449;Laerm;56828;52.294;4.666;2023-04-25T00:33:27;29.28;28.36;30.31;;
66449;Laerm;56828;52.294;4.666;2023-04-25T00:33:37;29.21;28.17;30.22;;
66449;Laerm;56828;52.294;4.666;2023-04-25T00:33:48;29.64;28.24;31.14;;
66449;Laerm;56828;52.294;4.666;2023-04-25T00:33:58;29.56;28.03;30.72;;
66449;Laerm;56828;52.294;4.666;2023-04-25T00:34:08;29.36;28.28;30.40;;
66449;Laerm;56828;52.294;4.666;2023-04-25T00:34:18;29.53;28.32;30.95;;
66449;Laerm;56828;52.294;4.666;2023-04-25T00:34:29;29.70;28.34;31.42;;
66449;Laerm;56828;52.294;4.666;2023-04-25T00:34:39;29.63;28.61;30.75;;
66449;Laerm;56828;52.294;4.666;2023-04-25T00:34:50;29.39;28.38;30.60;;
66449;Laerm;56828;52.294;4.666;2023-04-25T00:35:01;29.21;28.08;30.27;;
66449;Laerm;56828;52.294;4.666;2023-04-25T00:35:11;29.10;28.05;30.15;;
66449;Laerm;56828;52.294;4.666;2023-04-25T00:35:21;29.21;28.19;30.37;;
66449;Laerm;56828;52.294;4.666;2023-04-25T00:35:32;29.18;28.03;31.12;;
66449;Laerm;56828;52.294;4.666;2023-04-25T00:35:42;29.70;27.74;31.37;;
66449;Laerm;56828;52.294;4.666;2023-04-25T00:35:53;29.11;27.99;30.17;;
66449;Laerm;56828;52.294;4.666;2023-04-25T00:36:03;29.28;28.21;30.21;;
66449;Laerm;56828;52.294;4.666;2023-04-25T00:36:13;30.01;28.24;33.09;;
66449;Laerm;56828;52.294;4.666;2023-04-25T00:36:24;29.89;27.90;32.78;;
66449;Laerm;56828;52.294;4.666;2023-04-25T00:36:34;29.16;28.13;30.94;;
66449;Laerm;56828;52.294;4.666;2023-04-25T00:36:45;29.03;28.03;30.04;;
66449;Laerm;56828;52.294;4.666;2023-04-25T00:36:55;29.06;27.59;29.96;;
66449;Laerm;56828;52.294;4.666;2023-04-25T00:37:06;29.51;27.95;32.47;;
66449;Laerm;56828;52.294;4.666;2023-04-25T00:37:17;30.70;28.80;35.37;;
66449;Laerm;56828;52.294;4.666;2023-04-25T00:37:28;32.03;29.28;42.39;;
66449;Laerm;56828;52.294;4.666;2023-04-25T00:37:38;34.63;29.35;41.37;;
66449;Laerm;56828;52.294;4.666;2023-04-25T00:37:48;34.76;30.25;41.29;;
66449;Laerm;56828;52.294;4.666;2023-04-25T00:37:59;34.31;29.73;41.71;;
66449;Laerm;56828;52.294;4.666;2023-04-25T00:38:10;32.73;29.37;37.18;;
66449;Laerm;56828;52.294;4.666;2023-04-25T00:38:20;31.20;28.84;36.10;;
66449;Laerm;56828;52.294;4.666;2023-04-25T00:38:30;32.49;29.24;37.63;;
66449;Laerm;56828;52.294;4.666;2023-04-25T00:38:40;32.63;29.52;37.31;;
66449;Laerm;56828;52.294;4.666;2023-04-25T00:38:52;31.75;29.38;34.80;;
66449;Laerm;56828;52.294;4.666;2023-04-25T00:39:02;33.92;29.12;40.77;;
66449;Laerm;56828;52.294;4.666;2023-04-25T00:39:14;33.25;29.39;38.22;;
66449;Laerm;56828;52.294;4.666;2023-04-25T00:39:24;30.55;29.32;32.43;;
66449;Laerm;56828;52.294;4.666;2023-04-25T00:39:35;30.07;28.48;31.67;;
66449;Laerm;56828;52.294;4.666;2023-04-25T00:39:45;29.87;28.59;31.62;;
66449;Laerm;56828;52.294;4.666;2023-04-25T00:39:57;29.72;28.47;35.17;;
66449;Laerm;56828;52.294;4.666;2023-04-25T00:40:07;29.41;28.17;30.39;;
66449;Laerm;56828;52.294;4.666;2023-04-25T00:40:18;29.45;28.20;30.76;;
66449;Laerm;56828;52.294;4.666;2023-04-25T00:40:28;29.82;28.63;33.01;;
66449;Laerm;56828;52.294;4.666;2023-04-25T00:40:38;29.55;28.41;31.93;;
66449;Laerm;56828;52.294;4.666;2023-04-25T00:40:49;29.15;27.75;30.33;;
66449;Laerm;56828;52.294;4.666;2023-04-25T00:40:59;29.05;27.87;29.88;;
66449;Laerm;56828;52.294;4.666;2023-04-25T00:41:10;29.07;28.09;30.20;;
66449;Laerm;56828;52.294;4.666;2023-04-25T00:41:20;29.08;27.96;30.41;;
66449;Laerm;56828;52.294;4.666;2023-04-25T00:41:30;29.14;28.14;30.21;;
66449;Laerm;56828;52.294;4.666;2023-04-25T00:41:41;29.19;28.16;30.14;;
66449;Laerm;56828;52.294;4.666;2023-04-25T00:41:51;29.19;27.95;30.10;;
66449;Laerm;56828;52.294;4.666;2023-04-25T00:42:04;29.31;28.15;30.18;;
66449;Laerm;56828;52.294;4.666;2023-04-25T00:42:15;29.05;27.81;30.05;;
66449;Laerm;56828;52.294;4.666;2023-04-25T00:42:26;29.16;28.10;30.14;;
66449;Laerm;56828;52.294;4.666;2023-04-25T00:42:36;29.26;28.13;30.32;;
66449;Laerm;56828;52.294;4.666;2023-04-25T00:42:47;29.00;28.02;30.21;;
66449;Laerm;56828;52.294;4.666;2023-04-25T00:42:57;29.07;28.03;30.08;;
66449;Laerm;56828;52.294;4.666;2023-04-25T00:43:08;29.07;27.94;29.97;;
66449;Laerm;56828;52.294;4.666;2023-04-25T00:43:18;29.93;28.32;32.46;;
66449;Laerm;56828;52.294;4.666;2023-04-25T00:43:28;29.61;28.20;33.09;;
66449;Laerm;56828;52.294;4.666;2023-04-25T00:43:40;29.33;27.82;30.64;;
66449;Laerm;56828;52.294;4.666;2023-04-25T00:43:50;29.51;28.29;31.03;;
66449;Laerm;56828;52.294;4.666;2023-04-25T00:44:01;30.03;28.04;38.51;;
66449;Laerm;56828;52.294;4.666;2023-04-25T00:44:12;29.52;28.12;35.27;;
66449;Laerm;56828;52.294;4.666;2023-04-25T00:44:23;30.90;28.10;41.78;;
66449;Laerm;56828;52.294;4.666;2023-04-25T00:44:34;30.98;28.39;46.70;;
66449;Laerm;56828;52.294;4.666;2023-04-25T00:44:45;32.60;28.60;44.45;;
66449;Laerm;56828;52.294;4.666;2023-04-25T00:44:56;35.97;28.78;49.93;;
66449;Laerm;56828;52.294;4.666;2023-04-25T00:45:07;34.63;28.35;47.53;;
66449;Laerm;56828;52.294;4.666;2023-04-25T00:45:19;29.17;27.99;33.48;;
66449;Laerm;56828;52.294;4.666;2023-04-25T00:45:29;30.06;28.16;33.83;;
66449;Laerm;56828;52.294;4.666;2023-04-25T00:45:40;30.04;27.97;36.65;;
66449;Laerm;56828;52.294;4.666;2023-04-25T00:45:50;29.45;28.19;31.87;;
66449;Laerm;56828;52.294;4.666;2023-04-25T00:46:02;28.98;27.80;30.11;;
66449;Laerm;56828;52.294;4.666;2023-04-25T00:46:12;28.99;28.09;30.18;;
66449;Laerm;56828;52.294;4.666;2023-04-25T00:46:23;29.07;27.83;30.36;;
66449;Laerm;56828;52.294;4.666;2023-04-25T00:46:33;29.03;28.10;30.19;;
66449;Laerm;56828;52.294;4.666;2023-04-25T00:46:44;29.10;28.03;30.16;;
66449;Laerm;56828;52.294;4.666;2023-04-25T00:46:54;29.36;27.98;31.77;;
66449;Laerm;56828;52.294;4.666;2023-04-25T00:47:05;30.15;28.15;34.55;;
66449;Laerm;56828;52.294;4.666;2023-04-25T00:47:16;30.15;28.50;32.05;;
66449;Laerm;56828;52.294;4.666;2023-04-25T00:47:26;29.37;28.07;30.85;;
66449;Laerm;56828;52.294;4.666;2023-04-25T00:47:38;29.12;27.83;30.49;;
66449;Laerm;56828;52.294;4.666;2023-04-25T00:47:49;29.20;28.25;31.57;;
66449;Laerm;56828;52.294;4.666;2023-04-25T00:47:59;29.11;28.13;30.18;;
66449;Laerm;56828;52.294;4.666;2023-04-25T00:48:10;29.10;27.52;30.45;;
66449;Laerm;56828;52.294;4.666;2023-04-25T00:48:21;29.13;28.12;30.41;;
66449;Laerm;56828;52.294;4.666;2023-04-25T00:48:32;29.17;28.11;30.63;;
66449;Laerm;56828;52.294;4.666;2023-04-25T00:48:42;28.95;27.66;30.30;;
66449;Laerm;56828;52.294;4.666;2023-04-25T00:48:52;28.92;27.62;30.00;;
66449;Laerm;56828;52.294;4.666;2023-04-25T00:49:02;28.92;27.97;29.88;;
66449;Laerm;56828;52.294;4.666;2023-04-25T00:49:13;29.27;27.89;31.24;;
66449;Laerm;56828;52.294;4.666;2023-04-25T00:49:25;29.16;27.83;30.32;;
66449;Laerm;56828;52.294;4.666;2023-04-25T00:49:35;29.12;28.03;30.26;;
66449;Laerm;56828;52.294;4.666;2023-04-25T00:49:46;29.06;28.12;29.87;;
66449;Laerm;56828;52.294;4.666;2023-04-25T00:49:56;29.11;27.86;30.49;;
66449;Laerm;56828;52.294;4.666;2023-04-25T00:50:07;29.20;28.18;30.27;;
66449;Laerm;56828;52.294;4.666;2023-04-25T00:50:17;31.01;28.64;35.78;;
66449;Laerm;56828;52.294;4.666;2023-04-25T00:50:27;37.07;32.75;43.26;;
66449;Laerm;56828;52.294;4.666;2023-04-25T00:50:38;41.06;35.86;44.97;;
66449;Laerm;56828;52.294;4.666;2023-04-25T00:50:53;34.55;29.28;40.75;;
66449;Laerm;56828;52.294;4.666;2023-04-25T00:51:06;31.29;28.19;35.05;;
66449;Laerm;56828;52.294;4.666;2023-04-25T00:51:19;31.14;29.21;32.91;;
66449;Laerm;56828;52.294;4.666;2023-04-25T00:51:29;29.75;28.34;31.53;;
66449;Laerm;56828;52.294;4.666;2023-04-25T00:51:40;29.30;28.28;30.96;;
66449;Laerm;56828;52.294;4.666;2023-04-25T00:51:51;29.21;28.13;30.35;;
66449;Laerm;56828;52.294;4.666;2023-04-25T00:52:01;29.06;27.85;30.06;;
66449;Laerm;56828;52.294;4.666;2023-04-25T00:52:11;29.06;27.95;30.08;;
66449;Laerm;56828;52.294;4.666;2023-04-25T00:52:22;29.04;27.92;30.30;;
66449;Laerm;56828;52.294;4.666;2023-04-25T00:52:32;29.14;27.79;30.27;;
66449;Laerm;56828;52.294;4.666;2023-04-25T00:52:43;29.16;28.08;30.38;;
66449;Laerm;56828;52.294;4.666;2023-04-25T00:52:54;29.14;28.05;31.78;;
66449;Laerm;56828;52.294;4.666;2023-04-25T00:53:04;29.15;28.00;30.51;;
66449;Laerm;56828;52.294;4.666;2023-04-25T00:53:15;29.16;28.04;30.23;;
66449;Laerm;56828;52.294;4.666;2023-04-25T00:53:26;29.31;27.91;31.30;;
66449;Laerm;56828;52.294;4.666;2023-04-25T00:53:37;29.17;28.19;30.46;;
66449;Laerm;56828;52.294;4.666;2023-04-25T00:53:48;29.25;27.98;31.66;;
66449;Laerm;56828;52.294;4.666;2023-04-25T00:53:59;29.10;27.68;30.47;;
66449;Laerm;56828;52.294;4.666;2023-04-25T00:54:11;29.28;27.89;30.92;;
66449;Laerm;56828;52.294;4.666;2023-04-25T00:54:21;29.30;27.86;30.56;;
66449;Laerm;56828;52.294;4.666;2023-04-25T00:54:32;29.98;28.06;37.84;;
66449;Laerm;56828;52.294;4.666;2023-04-25T00:54:42;29.85;28.53;31.41;;
66449;Laerm;56828;52.294;4.666;2023-04-25T00:54:53;30.28;28.80;36.33;;
66449;Laerm;56828;52.294;4.666;2023-04-25T00:55:03;31.92;29.24;43.53;;
66449;Laerm;56828;52.294;4.666;2023-04-25T00:55:14;31.03;29.27;32.81;;
66449;Laerm;56828;52.294;4.666;2023-04-25T00:55:25;29.75;28.27;33.10;;
66449;Laerm;56828;52.294;4.666;2023-04-25T00:55:36;30.04;28.36;37.44;;
66449;Laerm;56828;52.294;4.666;2023-04-25T00:55:46;29.86;28.43;33.90;;
66449;Laerm;56828;52.294;4.666;2023-04-25T00:55:57;29.38;27.94;31.20;;
66449;Laerm;56828;52.294;4.666;2023-04-25T00:56:07;29.22;27.93;30.11;;
66449;Laerm;56828;52.294;4.666;2023-04-25T00:56:18;29.12;28.07;30.01;;
66449;Laerm;56828;52.294;4.666;2023-04-25T00:56:28;29.18;27.80;30.45;;
66449;Laerm;56828;52.294;4.666;2023-04-25T00:56:39;29.13;27.88;30.30;;
66449;Laerm;56828;52.294;4.666;2023-04-25T00:56:50;29.31;27.83;33.29;;
66449;Laerm;56828;52.294;4.666;2023-04-25T00:57:00;29.31;28.02;30.44;;
66449;Laerm;56828;52.294;4.666;2023-04-25T00:57:11;29.47;28.51;30.88;;
66449;Laerm;56828;52.294;4.666;2023-04-25T00:57:21;29.32;28.28;30.30;;
66449;Laerm;56828;52.294;4.666;2023-04-25T00:57:32;29.51;28.38;32.89;;
66449;Laerm;56828;52.294;4.666;2023-04-25T00:57:42;29.30;28.27;30.86;;
66449;Laerm;56828;52.294;4.666;2023-04-25T00:57:52;29.36;28.30;30.42;;
66449;Laerm;56828;52.294;4.666;2023-04-25T00:58:03;29.42;28.20;30.61;;
66449;Laerm;56828;52.294;4.666;2023-04-25T00:58:13;29.19;28.19;30.23;;
66449;Laerm;56828;52.294;4.666;2023-04-25T00:58:24;29.33;28.33;30.44;;
66449;Laerm;56828;52.294;4.666;2023-04-25T00:58:34;29.48;28.06;30.79;;
66449;Laerm;56828;52.294;4.666;2023-04-25T00:58:45;29.78;28.76;31.20;;
66449;Laerm;56828;52.294;4.666;2023-04-25T00:58:55;30.05;28.59;32.74;;
66449;Laerm;56828;52.294;4.666;2023-04-25T00:59:06;30.88;28.67;34.81;;
66449;Laerm;56828;52.294;4.666;2023-04-25T00:59:17;30.63;28.96;33.27;;
66449;Laerm;56828;52.294;4.666;2023-04-25T00:59:28;31.28;28.67;38.40;;
66449;Laerm;56828;52.294;4.666;2023-04-25T00:59:41;31.92;28.96;39.18;;